CYUL/YUL METAR and TAF weather

Enter ICAO airport designator
Station Type Date Time Source
CYUL METAR 2020/06/06 14:00 UTC NOAA

CYUL 061400Z VRB02KT 30SM FEW030 FEW120 FEW250 23/14 A2972 RMK CU1AC1CI1 CU TR AC TR CI TR SLP064 DENSITY ALT 1300FT


Station Type Date Time Source
CYUL Decoded METAR 2020/06/06 14:00 UTC NOAA

Montreal / Pierre Elliot Trudeau International Airport, Que, Canada (CYUL) 45-28N 073-45W 36M
Jun 06, 2020 - 10:00 AM EDT / 2020.06.06 1400 UTC
Wind: Variable at 2 MPH (2 KT):0
Visibility: 30 mile(s):0
Sky conditions: mostly clear
Temperature: 73 F (23 C)
Dew Point: 57 F (14 C)
Relative Humidity: 56%
Pressure (altimeter): 29.72 in. Hg (1006 hPa)
ob: CYUL 061400Z VRB02KT 30SM FEW030 FEW120 FEW250 23/14 A2972 RMK CU1AC1CI1 CU TR AC TR CI TR SLP064 DENSITY ALT 1300FT
cycle: 14

Station Type Date Time Source
CYUL TAF 2020/06/06 12:42 UTC NOAA

TAF CYUL 061138Z 0612/0712 35007KT P6SM BKN030 BKN140
TEMPO 0612/0614 BKN020 BKN080
BECMG 0612/0614 34010KT
FM061600 30007G17KT P6SM BKN040
FM061900 30007G17KT P6SM -SHRA BKN040 PROB30 0619/0701 VRB15G25KT 2SM TSRA BR BKN020 OVC050CB
FM070200 36010KT P6SM BKN040
BECMG 0710/0712 36010G20KT
RMK NXT FCST BY 061500Z

Example: see airport list